Temp: 1.9°C   Baro: 1027.1mb
  Wind: 0.9mph   Dir: ESE (123°)
  Rain: 0.0mm (0.0mm/hr)
  Solar: 104W/m2  Hum: 97%

Historic data

Bath Spa Weather Station Historical Data
Daily Summary for September 29, 2022 Units:  English    Metric   Both
Daily Weekly Monthly Yearly Custom
  High: Low: Average:
Temperature: 61.3 °F 43.2 °F 50.4 °F
Dew Point: 54.6 °F 40.1 °F 46.7 °F
Humidity: 95% 69% 87%
Wind Speed: 6.6mph 0mph 1.5mph
Wind Gust: 13mph - -
Wind- - SW
Pressure: 29.85 in 29.55 in -
Precipitation: 0.06 in    
Historical Graphs
 
 
Tabular Data for September 29, 2022
Time Temperature Dew Point Pressure Wind Wind Speed Wind Gust Humidity Rainfall Rate (Hourly) solar
00:09 45.9 °F 42.3 °F 29.59 in WSW 0.7 mph 2 mph 87% 0.00 in 0 W/m2
00:14 45.7 °F 42.1 °F 29.59 in WSW 0.9 mph 2 mph 87.2% 0.00 in 0 W/m2
00:19 45.5 °F 42.1 °F 29.59 in WSW 1.3 mph 3 mph 88% 0.00 in 0 W/m2
00:24 45.3 °F 41.9 °F 29.59 in WSW 2 mph 3 mph 88% 0.00 in 0 W/m2
00:29 45.2 °F 41.8 °F 29.59 in WSW 0.7 mph 3 mph 88% 0.00 in 0 W/m2
00:34 45.1 °F 41.7 °F 29.59 in WSW 0.8 mph 2 mph 88% 0.00 in 0 W/m2
00:39 45 °F 41.5 °F 29.59 in Calm   1 mph 88% 0.00 in 0 W/m2
00:44 44.8 °F 41.4 °F 29.59 in WSW 0.8 mph 3 mph 88% 0.00 in 0 W/m2
00:49 44.6 °F 41.2 °F 29.59 in WSW 2 mph 3 mph 88% 0.00 in 0 W/m2
00:54 44.3 °F 41.2 °F 29.59 in WSW 0.2 mph 2 mph 88.6% 0.00 in 0 W/m2
00:59 44.1 °F 40.9 °F 29.59 in WSW 0.4 mph 2 mph 88.6% 0.00 in 0 W/m2
01:04 43.9 °F 40.8 °F 29.59 in WSW 0.5 mph 2 mph 89% 0.00 in 0 W/m2
01:09 43.6 °F 40.6 °F 29.59 in WSW 0.2 mph 2 mph 89% 0.00 in 0 W/m2
01:14 43.4 °F 40.4 °F 29.58 in WSW 0.8 mph 2 mph 89% 0.00 in 0 W/m2
01:19 43.3 °F 40.3 °F 29.58 in WSW 1.6 mph 3 mph 89% 0.00 in 0 W/m2
01:24 43.3 °F 40.3 °F 29.58 in WSW 2.2 mph 3 mph 89% 0.00 in 0 W/m2
01:29 43.3 °F 40.3 °F 29.58 in WSW 1.2 mph 3 mph 89% 0.00 in 0 W/m2
01:34 43.2 °F 40.1 °F 29.58 in WSW 2.5 mph 4 mph 89% 0.00 in 0 W/m2
01:39 43.3 °F 40.6 °F 29.58 in WSW 2.2 mph 4 mph 90% 0.00 in 0 W/m2
01:44 43.4 °F 40.7 °F 29.58 in WSW 2.2 mph 3 mph 90% 0.00 in 0 W/m2
01:49 43.5 °F 40.8 °F 29.58 in WSW 1.6 mph 3 mph 90% 0.00 in 0 W/m2
01:54 43.5 °F 40.8 °F 29.58 in WSW 0.2 mph 3 mph 90% 0.00 in 0 W/m2
01:59 43.5 °F 40.8 °F 29.57 in WSW 0.4 mph 1 mph 90% 0.00 in 0 W/m2
02:04 43.7 °F 41 °F 29.57 in WSW 1.7 mph 3 mph 90% 0.00 in 0 W/m2
02:09 44 °F 41.3 °F 29.57 in WSW 1.6 mph 3 mph 90% 0.00 in 0 W/m2
02:14 44.1 °F 41.4 °F 29.57 in WSW 1.6 mph 3 mph 90% 0.00 in 0 W/m2
02:19 44.2 °F 41.5 °F 29.57 in WSW 0.7 mph 3 mph 90% 0.00 in 0 W/m2
02:24 44.2 °F 41.5 °F 29.57 in WSW 0.9 mph 2 mph 90% 0.00 in 0 W/m2
02:29 44.2 °F 41.5 °F 29.57 in WSW 1.2 mph 2 mph 90% 0.00 in 0 W/m2
02:34 44.2 °F 41.5 °F 29.57 in Calm   2 mph 90% 0.00 in 0 W/m2
02:39 44.3 °F 41.6 °F 29.57 in Calm     90% 0.00 in 0 W/m2
02:44 44.4 °F 41.7 °F 29.57 in Calm     90% 0.00 in 0 W/m2
02:49 44.5 °F 41.8 °F 29.57 in WSW 0.2 mph 1 mph 90% 0.00 in 0 W/m2
02:54 44.6 °F 41.9 °F 29.57 in WSW 0.4 mph 2 mph 90% 0.00 in 0 W/m2
02:59 44.7 °F 42 °F 29.57 in WSW 0.4 mph 2 mph 90% 0.00 in 0 W/m2
03:04 44.8 °F 42.1 °F 29.57 in WSW 1.6 mph 3 mph 90% 0.01 in 0 W/m2
03:09 44.7 °F 42 °F 29.57 in WSW 2.4 mph 4 mph 90% 0.02 in 0 W/m2
03:14 44.4 °F 41.8 °F 29.57 in WSW 2.6 mph 4 mph 90.4% 0.02 in 0 W/m2
03:19 44.4 °F 41.9 °F 29.57 in WSW 1.6 mph 4 mph 91% 0.03 in 0 W/m2
03:24 44.4 °F 41.9 °F 29.56 in WSW 0.8 mph 3 mph 91% 0.04 in 0 W/m2
03:29 44.4 °F 41.9 °F 29.56 in WSW 0.2 mph 2 mph 91% 0.04 in 0 W/m2
03:34 44.4 °F 41.9 °F 29.56 in WSW 0.5 mph 2 mph 91% 0.05 in 0 W/m2
03:39 44.6 °F 42.1 °F 29.56 in WSW 0.4 mph 2 mph 91% 0.05 in 0 W/m2
03:44 44.8 °F 42.3 °F 29.56 in WSW 0.2 mph 2 mph 91% 0.05 in 0 W/m2
03:49 45 °F 42.4 °F 29.55 in WSW 0.9 mph 2 mph 91% 0.05 in 0 W/m2
03:54 45.1 °F 42.6 °F 29.55 in Calm   1 mph 91% 0.05 in 0 W/m2
03:59 45.3 °F 42.8 °F 29.55 in WSW 1.2 mph 3 mph 91% 0.05 in 0 W/m2
04:04 45.5 °F 43.3 °F 29.55 in WSW 1.8 mph 3 mph 91.8% 0.04 in 0 W/m2
04:09 45.7 °F 43.5 °F 29.55 in WSW 2.4 mph 3 mph 92% 0.04 in 0 W/m2
04:14 45.8 °F 43.6 °F 29.55 in WSW 1.7 mph 3 mph 92% 0.02 in 0 W/m2
04:19 45.9 °F 43.7 °F 29.55 in WSW 2 mph 4 mph 92% 0.02 in 0 W/m2
04:24 45.9 °F 43.7 °F 29.55 in WSW 0.9 mph 3 mph 92% 0.02 in 0 W/m2
04:29 46 °F 43.9 °F 29.55 in WSW 1.3 mph 3 mph 92% 0.01 in 0 W/m2
04:34 46 °F 43.9 °F 29.55 in WSW 1.6 mph 4 mph 92% 0.01 in 0 W/m2
04:39 46 °F 43.9 °F 29.56 in West 0.9 mph 3 mph 92% 0.00 in 0 W/m2
04:44 46.2 °F 44.1 °F 29.55 in West 1.7 mph 3 mph 92% 0.00 in 0 W/m2
04:49 46.2 °F 44.1 °F 29.55 in West 2.2 mph 5 mph 92% 0.00 in 0 W/m2
04:54 46 °F 43.9 °F 29.56 in WNW 2.4 mph 4 mph 92% 0.00 in 0 W/m2
04:59 46 °F 43.9 °F 29.55 in WNW 2 mph 4 mph 92% 0.00 in 0 W/m2
05:04 46 °F 43.9 °F 29.56 in WNW 2.4 mph 4 mph 92% 0.00 in 0 W/m2
05:09 46 °F 43.9 °F 29.55 in WNW 1.8 mph 4 mph 92% 0.01 in 0 W/m2
05:14 46 °F 44 °F 29.55 in WNW 2 mph 4 mph 92.2% 0.01 in 0 W/m2
05:19 46 °F 44.1 °F 29.55 in West 2.3 mph 4 mph 93% 0.01 in 0 W/m2
05:24 46.1 °F 44.1 °F 29.56 in West 2.7 mph 4 mph 93% 0.01 in 0 W/m2
05:29 46.1 °F 44.2 °F 29.56 in West 1.8 mph 3 mph 93% 0.01 in 0 W/m2
05:34 46.2 °F 44.2 °F 29.55 in West 2.1 mph 3 mph 93% 0.01 in 0 W/m2
05:39 46.2 °F 44.2 °F 29.56 in West 1.8 mph 4 mph 93% 0.01 in 0 W/m2
05:44 46.2 °F 44.2 °F 29.56 in West 0.8 mph 3 mph 93% 0.01 in 0 W/m2
05:49 46.2 °F 44.2 °F 29.56 in West 0.4 mph 2 mph 93% 0.02 in 0 W/m2
05:54 46.3 °F 44.3 °F 29.56 in West 0.4 mph 2 mph 93% 0.02 in 0 W/m2
05:59 46.4 °F 44.4 °F 29.56 in West 0.7 mph 2 mph 93% 0.02 in 0 W/m2
06:04 46.5 °F 44.5 °F 29.56 in West 0.6 mph 3 mph 93% 0.02 in 0 W/m2
06:09 46.6 °F 44.6 °F 29.57 in West 1.2 mph 2 mph 93% 0.01 in 0 W/m2
06:14 46.6 °F 44.6 °F 29.57 in West 0.8 mph 3 mph 93% 0.01 in 0 W/m2
06:19 46.6 °F 44.6 °F 29.57 in West 1.3 mph 3 mph 93% 0.01 in 0 W/m2
06:24 46.6 °F 44.6 °F 29.57 in West 1 mph 3 mph 93% 0.01 in 0 W/m2
06:29 46.6 °F 44.6 °F 29.57 in West 0.2 mph 2 mph 93% 0.01 in 0 W/m2
06:34 46.6 °F 44.6 °F 29.57 in West 0.5 mph 2 mph 93% 0.01 in 0 W/m2
06:39 46.7 °F 44.7 °F 29.57 in Calm   1 mph 93% 0.01 in 0 W/m2
06:44 46.8 °F 44.8 °F 29.57 in West 0.5 mph 2 mph 93% 0.01 in 0 W/m2
06:49 46.8 °F 44.9 °F 29.58 in Calm   1 mph 93.2% 0.01 in 0 W/m2
06:54 46.8 °F 45.1 °F 29.58 in Calm     93.8% 0.00 in 0 W/m2
06:59 46.9 °F 45.2 °F 29.57 in West 0.5 mph 2 mph 94% 0.00 in 0 W/m2
07:04 46.8 °F 45.2 °F 29.58 in Calm   2 mph 94% 0.00 in 0 W/m2
07:09 46.8 °F 45.1 °F 29.58 in Calm     94% 0.00 in 0 W/m2
07:14 46.8 °F 45.1 °F 29.58 in West 0.2 mph 2 mph 94% 0.00 in 0 W/m2
07:19 46.8 °F 45.1 °F 29.58 in West 0.8 mph 2 mph 94% 0.00 in 0 W/m2
07:24 47 °F 45.3 °F 29.58 in West 0.9 mph 3 mph 94% 0.00 in 7 W/m2
07:29 46.9 °F 45.3 °F 29.58 in West 1.2 mph 2 mph 94% 0.00 in 11 W/m2
07:34 46.9 °F 45.3 °F 29.58 in West 0.2 mph 2 mph 94% 0.00 in 12 W/m2
07:39 47.1 °F 45.5 °F 29.58 in West 0.8 mph 3 mph 94% 0.00 in 14 W/m2
07:44 47.1 °F 45.5 °F 29.59 in West 1.2 mph 3 mph 94% 0.00 in 19 W/m2
07:49 47.1 °F 45.5 °F 29.59 in West 1.8 mph 4 mph 94% 0.00 in 26 W/m2
07:54 47.1 °F 45.5 °F 29.59 in West 1.7 mph 4 mph 94% 0.00 in 28 W/m2
07:59 47.1 °F 45.5 °F 29.59 in West 2.1 mph 4 mph 94% 0.00 in 33 W/m2
08:04 47.2 °F 45.6 °F 29.59 in West 1.6 mph 4 mph 94% 0.00 in 30 W/m2
08:09 47.3 °F 45.7 °F 29.59 in West 1.7 mph 3 mph 94% 0.00 in 23 W/m2
08:14 47.5 °F 45.9 °F 29.59 in West 1.3 mph 3 mph 94% 0.00 in 33 W/m2
08:19 47.6 °F 46 °F 29.59 in West 1.2 mph 3 mph 94% 0.00 in 47 W/m2
08:24 48 °F 46.4 °F 29.59 in West 0.2 mph 2 mph 94% 0.00 in 33 W/m2
08:29 48.1 °F 46.5 °F 29.60 in West 0.8 mph 2 mph 94% 0.00 in 33 W/m2
08:34 48.1 °F 46.5 °F 29.60 in West 0.4 mph 2 mph 94% 0.00 in 51 W/m2
08:39 48.3 °F 46.8 °F 29.60 in Calm   2 mph 94% 0.00 in 72 W/m2
08:44 48.4 °F 46.8 °F 29.60 in West 0.6 mph 3 mph 94% 0.00 in 77 W/m2
08:49 48.4 °F 46.8 °F 29.60 in West 0.9 mph 3 mph 94% 0.00 in 83 W/m2
08:54 48.7 °F 47.1 °F 29.61 in West 0.2 mph 2 mph 94.4% 0.00 in 91 W/m2
08:59 49.2 °F 47.6 °F 29.61 in Calm     94% 0.00 in 90 W/m2
09:04 49.3 °F 47.8 °F 29.61 in West 0.4 mph 3 mph 94.2% 0.00 in 81 W/m2
09:09 49.3 °F 47.7 °F 29.62 in West 0.9 mph 3 mph 94% 0.00 in 86 W/m2
09:14 49.2 °F 47.6 °F 29.62 in West 1.7 mph 3 mph 94% 0.00 in 69 W/m2
09:19 49.3 °F 47.8 °F 29.62 in West 0.2 mph 2 mph 94.4% 0.00 in 83 W/m2
09:24 49.6 °F 48.2 °F 29.62 in West 1.1 mph 3 mph 95% 0.00 in 88 W/m2
09:29 49.6 °F 48.2 °F 29.62 in West 0.9 mph 2 mph 95% 0.00 in 65 W/m2
09:34 49.7 °F 48.2 °F 29.62 in West 0.2 mph 2 mph 94.4% 0.00 in 79 W/m2
09:39 49.8 °F 48.3 °F 29.62 in West 1 mph 3 mph 94.4% 0.00 in 86 W/m2
09:44 49.8 °F 48.3 °F 29.63 in West 2.8 mph 4 mph 94.4% 0.00 in 121 W/m2
09:49 50.2 °F 48.7 °F 29.63 in West 1.4 mph 3 mph 95% 0.00 in 132 W/m2
09:54 50.4 °F 48.9 °F 29.63 in NW 2.9 mph 6 mph 94.8% 0.00 in 141 W/m2
09:59 50.5 °F 49.1 °F 29.63 in NW 2.5 mph 5 mph 94.8% 0.00 in 135 W/m2
10:04 50.5 °F 49 °F 29.63 in North 5.1 mph 8 mph 94.2% 0.00 in 163 W/m2
10:09 50.7 °F 49.1 °F 29.64 in North 2.7 mph 8 mph 94.2% 0.00 in 220 W/m2
10:14 50.9 °F 49.5 °F 29.64 in NNW 4.9 mph 9 mph 95% 0.00 in 186 W/m2
10:19 51 °F 49.4 °F 29.64 in North 2.5 mph 9 mph 94.2% 0.00 in 178 W/m2
10:24 51.1 °F 49.5 °F 29.64 in NNW 2.1 mph 6 mph 94% 0.00 in 125 W/m2
10:29 51.1 °F 49.5 °F 29.65 in North 2.1 mph 8 mph 94% 0.00 in 107 W/m2
10:34 51.1 °F 49.5 °F 29.65 in North 2.5 mph 6 mph 94% 0.00 in 137 W/m2
10:39 51.2 °F 49.5 °F 29.65 in NNW 1.4 mph 4 mph 94% 0.00 in 206 W/m2
10:44 51.4 °F 49.8 °F 29.65 in NNW 1.2 mph 4 mph 94% 0.00 in 237 W/m2
10:49 51.6 °F 50 °F 29.65 in North 2 mph 6 mph 94% 0.00 in 202 W/m2
10:54 51.8 °F 50.2 °F 29.65 in North 2.5 mph 7 mph 94% 0.00 in 362 W/m2
10:59 51.9 °F 50.3 °F 29.65 in NNE 1.7 mph 7 mph 94% 0.00 in 267 W/m2
11:04 52.1 °F 50.4 °F 29.66 in North 4.1 mph 9 mph 94% 0.00 in 248 W/m2
11:09 52.2 °F 50.5 °F 29.66 in North 3.5 mph 7 mph 94% 0.00 in 181 W/m2
11:14 52.1 °F 50.5 °F 29.66 in NNW 4.9 mph 8 mph 94% 0.00 in 118 W/m2
11:19 51.7 °F 50.1 °F 29.66 in NW 4.5 mph 8 mph 94% 0.00 in 40 W/m2
11:24 51.5 °F 49.9 °F 29.66 in NNW 4.1 mph 10 mph 94% 0.00 in 72 W/m2
11:29 51.5 °F 49.9 °F 29.67 in NNW 2.1 mph 7 mph 94% 0.00 in 137 W/m2
11:34 51.7 °F 50.1 °F 29.67 in NNW 2.8 mph 5 mph 94% 0.00 in 272 W/m2
11:39 52.1 °F 50.5 °F 29.67 in NW 3.7 mph 10 mph 94% 0.00 in 258 W/m2
11:44 52.4 °F 50.8 °F 29.67 in NNW 4.4 mph 9 mph 94% 0.00 in 253 W/m2
11:49 52.6 °F 51 °F 29.67 in North 5 mph 9 mph 94% 0.00 in 297 W/m2
11:54 53.1 °F 51.2 °F 29.67 in North 3.9 mph 7 mph 93.2% 0.00 in 309 W/m2
11:59 53.4 °F 51.4 °F 29.68 in NW 5 mph 10 mph 93% 0.00 in 408 W/m2
12:04 53.6 °F 51.6 °F 29.68 in NNW 3.9 mph 10 mph 93% 0.00 in 367 W/m2
12:09 53.9 °F 51.9 °F 29.67 in NNW 5.3 mph 9 mph 93% 0.00 in 359 W/m2
12:14 54 °F 51.8 °F 29.67 in NNW 5 mph 9 mph 92.6% 0.00 in 248 W/m2
12:19 54 °F 51.6 °F 29.68 in NNW 4.4 mph 8 mph 92% 0.00 in 281 W/m2
12:24 53.8 °F 51.4 °F 29.68 in NNW 4.4 mph 10 mph 92% 0.00 in 271 W/m2
12:29 53.8 °F 51.4 °F 29.68 in North 3.8 mph 8 mph 91.4% 0.00 in 241 W/m2
12:34 54.1 °F 51.6 °F 29.68 in NNW 3.2 mph 7 mph 91% 0.00 in 241 W/m2
12:39 54.4 °F 51.9 °F 29.68 in North 3.3 mph 6 mph 91% 0.00 in 213 W/m2
12:44 54.8 °F 52.2 °F 29.68 in North 1.4 mph 5 mph 90.6% 0.00 in 225 W/m2
12:49 55.1 °F 52.3 °F 29.68 in North 1.2 mph 3 mph 90% 0.00 in 272 W/m2
12:54 55.6 °F 52.7 °F 29.69 in NNE 0.6 mph 3 mph 90% 0.00 in 267 W/m2
12:59 56.1 °F 53.1 °F 29.69 in North 0.6 mph 5 mph 89.6% 0.00 in 322 W/m2
13:04 56.8 °F 53.4 °F 29.69 in East 3.1 mph 8 mph 88.6% 0.00 in 446 W/m2
13:09 57.9 °F 54.2 °F 29.69 in ENE 5.4 mph 9 mph 87.6% 0.00 in 446 W/m2
13:14 58.8 °F 54.6 °F 29.69 in East 2.8 mph 7 mph 85.8% 0.00 in 415 W/m2
13:19 59.2 °F 54.1 °F 29.69 in East 5.1 mph 8 mph 83.4% 0.00 in 149 W/m2
13:24 58.8 °F 53.2 °F 29.70 in ENE 4 mph 7 mph 81.2% 0.00 in 95 W/m2
13:29 58.6 °F 52.5 °F 29.70 in ENE 2.5 mph 5 mph 80.2% 0.00 in 118 W/m2
13:34 58.4 °F 52.2 °F 29.70 in ENE 1 mph 5 mph 80% 0.00 in 118 W/m2
13:39 57.9 °F 51.7 °F 29.70 in ENE 2 mph 5 mph 79.6% 0.00 in 120 W/m2
13:44 57.6 °F 51.4 °F 29.70 in NNE 2.9 mph 7 mph 79.6% 0.00 in 98 W/m2
13:48 57.1 °F 50.6 °F 29.70 in NNE 2.5 mph 5 mph 79% 0.00 in 121 W/m2
13:54 57 °F 50.9 °F 29.70 in NE 2.7 mph 6 mph 80% 0.00 in 141 W/m2
13:59 56.8 °F 50.7 °F 29.70 in NNE 1.5 mph 6 mph 80% 0.00 in 144 W/m2
14:04 56.8 °F 50.7 °F 29.71 in NE 2.5 mph 6 mph 80% 0.00 in 121 W/m2
14:09 56.7 °F 50.6 °F 29.71 in North 2.8 mph 6 mph 80% 0.00 in 84 W/m2
14:14 56.5 °F 50.4 °F 29.71 in NNE 3.6 mph 6 mph 80% 0.00 in 76 W/m2
14:19 56 °F 50.2 °F 29.71 in North 4.4 mph 8 mph 80.8% 0.00 in 51 W/m2
14:24 55.6 °F 50 °F 29.72 in North 1.7 mph 6 mph 81.6% 0.00 in 54 W/m2
14:29 55.2 °F 50 °F 29.72 in NNE 3.3 mph 6 mph 82.4% 0.00 in 79 W/m2
14:34 55.1 °F 50.1 °F 29.72 in NNE 2.5 mph 7 mph 83% 0.00 in 142 W/m2
14:39 55.2 °F 50.4 °F 29.72 in North 1.5 mph 4 mph 83.4% 0.00 in 195 W/m2
14:44 55.4 °F 50.7 °F 29.72 in North 1.8 mph 3 mph 84% 0.00 in 206 W/m2
14:49 55.7 °F 50.8 °F 29.72 in NNE 2 mph 5 mph 83.6% 0.00 in 165 W/m2
14:54 55.9 °F 51.1 °F 29.72 in NE 6.6 mph 13 mph 83.6% 0.00 in 144 W/m2
14:59 55.9 °F 50.7 °F 29.72 in NNE 4 mph 9 mph 82.4% 0.00 in 162 W/m2
15:04 56.1 °F 50.7 °F 29.72 in NE 3 mph 6 mph 82% 0.00 in 169 W/m2
15:09 56.3 °F 50.8 °F 29.72 in NNE 3.1 mph 7 mph 81.8% 0.00 in 162 W/m2
15:14 56.5 °F 50.7 °F 29.72 in NNE 3.4 mph 8 mph 81% 0.00 in 151 W/m2
15:19 56.5 °F 50.6 °F 29.72 in North 2.8 mph 4 mph 80.8% 0.00 in 135 W/m2
15:24 56.5 °F 50.4 °F 29.72 in North 1.2 mph 4 mph 80% 0.00 in 158 W/m2
15:29 56.5 °F 50.6 °F 29.72 in NNW 2.3 mph 5 mph 80.8% 0.00 in 158 W/m2
15:34 56.7 °F 50.9 °F 29.72 in North 1.4 mph 5 mph 81% 0.00 in 158 W/m2
15:39 56.9 °F 51.1 °F 29.72 in NNE 1 mph 4 mph 81% 0.00 in 385 W/m2
15:44 57.4 °F 51.4 °F 29.72 in NNE 1 mph 2 mph 80.6% 0.00 in 568 W/m2
15:49 57.6 °F 51.3 °F 29.72 in WSW 1.3 mph 4 mph 79.6% 0.00 in 207 W/m2
15:54 57.3 °F 50.8 °F 29.73 in SSW 0.2 mph 3 mph 79% 0.00 in 144 W/m2
15:58 57.1 °F 50.6 °F 29.72 in SSW 0.5 mph 3 mph 79% 0.00 in 118 W/m2
16:04 57.2 °F 50.7 °F 29.73 in NNW 2.1 mph 4 mph 79% 0.00 in 151 W/m2
16:09 57.7 °F 51.4 °F 29.73 in NE 4.6 mph 7 mph 79.6% 0.00 in 160 W/m2
16:14 57.7 °F 51.1 °F 29.73 in North 2 mph 4 mph 78.6% 0.00 in 125 W/m2
16:19 57.6 °F 50.7 °F 29.73 in North 1.4 mph 6 mph 78% 0.00 in 341 W/m2
16:24 57.9 °F 51.1 °F 29.74 in NNE 2.5 mph 5 mph 78% 0.00 in 376 W/m2
16:29 58.3 °F 51.2 °F 29.74 in NNW 4.8 mph 7 mph 77.2% 0.00 in 406 W/m2
16:34 58.4 °F 50.8 °F 29.74 in NNW 3.2 mph 6 mph 75.8% 0.00 in 329 W/m2
16:39 58.3 °F 50.5 °F 29.74 in NNE 1.5 mph 5 mph 75.2% 0.00 in 385 W/m2
16:44 59.2 °F 51.4 °F 29.74 in NNW 2.2 mph 5 mph 75.4% 0.00 in 369 W/m2
16:49 60 °F 51.6 °F 29.74 in ENE 0.9 mph 5 mph 73.8% 0.00 in 316 W/m2
16:54 60.3 °F 51.3 °F 29.74 in NE 2.4 mph 6 mph 72.2% 0.00 in 260 W/m2
16:59 60.6 °F 51.6 °F 29.75 in ENE 2.1 mph 8 mph 72% 0.00 in 272 W/m2
17:04 61.2 °F 51.9 °F 29.75 in ENE 1.2 mph 5 mph 71.4% 0.00 in 216 W/m2
17:09 61.3 °F 51.6 °F 29.75 in NNE 1.2 mph 3 mph 70.5% 0.00 in 207 W/m2
17:14 61.2 °F 51.4 °F 29.75 in NE 4.4 mph 10 mph 70.4% 0.00 in 186 W/m2
17:19 60.6 °F 50.7 °F 29.75 in North 4.5 mph 10 mph 70% 0.00 in 178 W/m2
17:24 59.8 °F 50 °F 29.75 in NNW 1.3 mph 5 mph 70% 0.00 in 139 W/m2
17:29 59.4 °F 49.7 °F 29.75 in North 3.7 mph 7 mph 70% 0.00 in 149 W/m2
17:34 59.4 °F 49.6 °F 29.76 in NNW 2.3 mph 5 mph 70% 0.00 in 128 W/m2
17:39 59.6 °F 50.2 °F 29.76 in North 1.6 mph 4 mph 70.8% 0.00 in 121 W/m2
17:44 59.9 °F 50.2 °F 29.77 in North 1 mph 3 mph 70% 0.00 in 109 W/m2
17:49 60.3 °F 50.2 °F 29.77 in North 2.6 mph 6 mph 69.4% 0.00 in 95 W/m2
17:54 60.3 °F 50 °F 29.77 in North 3 mph 6 mph 69% 0.00 in 83 W/m2
17:59 60.2 °F 49.9 °F 29.77 in NNE 2.5 mph 6 mph 69% 0.00 in 74 W/m2
18:04 60 °F 49.7 °F 29.78 in North 2.4 mph 4 mph 69% 0.00 in 62 W/m2
18:09 59.7 °F 49.5 °F 29.78 in NNE 0.9 mph 4 mph 69% 0.00 in 49 W/m2
18:14 60 °F 50.2 °F 29.78 in NNE 0.5 mph 4 mph 70% 0.00 in 37 W/m2
18:19 60.2 °F 50.3 °F 29.78 in NNE 1 mph 4 mph 70% 0.00 in 30 W/m2
18:24 60.3 °F 50.4 °F 29.78 in NNE 0.2 mph 2 mph 70% 0.00 in 23 W/m2
18:29 60 °F 50.3 °F 29.78 in NNE 0.7 mph 2 mph 70.4% 0.00 in 21 W/m2
18:34 59.3 °F 50.1 °F 29.78 in NNE 0.9 mph 2 mph 71.6% 0.00 in 21 W/m2
18:39 58.4 °F 49.9 °F 29.78 in NNE 1.1 mph 2 mph 73.4% 0.00 in 12 W/m2
18:44 57.5 °F 49.4 °F 29.79 in NNE 1.8 mph 2 mph 74.4% 0.00 in 9 W/m2
18:49 56.7 °F 48.9 °F 29.79 in NNE 0.7 mph 2 mph 75.4% 0.00 in 7 W/m2
18:54 56.2 °F 48.8 °F 29.79 in NNE 0.7 mph 2 mph 76.3% 0.00 in 5 W/m2
18:59 55.9 °F 48.9 °F 29.79 in Calm   1 mph 77% 0.00 in 0 W/m2
19:04 55.7 °F 48.8 °F 29.80 in NNE 0.5 mph 2 mph 77.4% 0.00 in 0 W/m2
19:09 54.7 °F 48 °F 29.80 in NNE 0.5 mph 2 mph 78% 0.00 in 0 W/m2
19:14 53.8 °F 47.2 °F 29.80 in North 2 mph 4 mph 78.2% 0.00 in 0 W/m2
19:19 53.1 °F 46.9 °F 29.81 in NNW 2.6 mph 5 mph 79.2% 0.00 in 0 W/m2
19:24 52.7 °F 46.8 °F 29.81 in NW 2 mph 5 mph 80.2% 0.00 in 0 W/m2
19:29 52.5 °F 46.9 °F 29.81 in NW 0.9 mph 3 mph 81.2% 0.00 in 0 W/m2
19:34 52.2 °F 46.8 °F 29.81 in NW 0.4 mph 3 mph 81.8% 0.00 in 0 W/m2
19:39 51.6 °F 46.5 °F 29.81 in NW 1.6 mph 3 mph 82.6% 0.00 in 0 W/m2
19:44 51.6 °F 46.6 °F 29.81 in NW 0.2 mph 2 mph 83% 0.00 in 0 W/m2
19:49 51.4 °F 46.8 °F 29.81 in Calm     83.8% 0.00 in 0 W/m2
19:54 51.4 °F 46.8 °F 29.81 in Calm     84% 0.00 in 0 W/m2
19:59 51.3 °F 46.6 °F 29.81 in NW 0.5 mph 2 mph 84% 0.00 in 0 W/m2
20:04 51.3 °F 46.6 °F 29.81 in Calm   1 mph 84% 0.00 in 0 W/m2
20:09 50.8 °F 46.2 °F 29.81 in Calm     84.2% 0.00 in 0 W/m2
20:14 50.7 °F 46.4 °F 29.81 in Calm     85% 0.00 in 0 W/m2
20:19 50.5 °F 46.2 °F 29.82 in Calm     85% 0.00 in 0 W/m2
20:24 50.5 °F 46.1 °F 29.82 in Calm     85% 0.00 in 0 W/m2
20:29 50.4 °F 46 °F 29.82 in Calm     85% 0.00 in 0 W/m2
20:34 50.2 °F 46 °F 29.81 in Calm     85.4% 0.00 in 0 W/m2
20:39 50.1 °F 46.1 °F 29.82 in Calm     86% 0.00 in 0 W/m2
20:44 49.5 °F 45.5 °F 29.82 in Calm     86% 0.00 in 0 W/m2
20:49 49.1 °F 45.1 °F 29.82 in Calm     86% 0.00 in 0 W/m2
20:54 48.9 °F 45.1 °F 29.82 in NW 2 mph 2 mph 86.8% 0.00 in 0 W/m2
20:59 48.9 °F 45.1 °F 29.82 in NW 1.3 mph 2 mph 87% 0.00 in 0 W/m2
21:04 48.9 °F 45.1 °F 29.81 in NW 0.2 mph 2 mph 87% 0.00 in 0 W/m2
21:09 48.7 °F 45 °F 29.82 in Calm     87% 0.00 in 0 W/m2
21:14 48.5 °F 44.9 °F 29.82 in NW 0.2 mph 1 mph 87.4% 0.00 in 0 W/m2
21:19 48.1 °F 44.7 °F 29.82 in NW 0.2 mph 2 mph 87.8% 0.00 in 0 W/m2
21:24 48.1 °F 44.7 °F 29.82 in Calm     88% 0.00 in 0 W/m2
21:29 48.4 °F 45 °F 29.83 in NW 0.2 mph 1 mph 88% 0.00 in 0 W/m2
21:34 48.7 °F 45.5 °F 29.83 in NW 0.7 mph 1 mph 88.6% 0.00 in 0 W/m2
21:39 49.5 °F 46.4 °F 29.83 in Calm   1 mph 89% 0.00 in 0 W/m2
21:44 49.3 °F 46.3 °F 29.84 in NW 0.8 mph 2 mph 89% 0.00 in 0 W/m2
21:49 47.9 °F 44.5 °F 29.84 in NW 0.8 mph 2 mph 88% 0.00 in 0 W/m2
21:54 47.5 °F 44.2 °F 29.84 in NW 1.1 mph 2 mph 88.2% 0.00 in 0 W/m2
21:59 47.4 °F 44.3 °F 29.84 in NW 0.7 mph 2 mph 89% 0.00 in 0 W/m2
22:04 47.1 °F 44.1 °F 29.84 in Calm   1 mph 89% 0.00 in 0 W/m2
22:09 47 °F 44 °F 29.84 in Calm   1 mph 89% 0.00 in 0 W/m2
22:14 47 °F 44 °F 29.84 in Calm     89% 0.00 in 0 W/m2
22:19 46.9 °F 43.9 °F 29.84 in Calm     89% 0.00 in 0 W/m2
22:24 46.9 °F 43.8 °F 29.85 in Calm     89% 0.00 in 0 W/m2
22:29 46.8 °F 43.7 °F 29.84 in Calm     89% 0.00 in 0 W/m2
22:34 46.6 °F 43.5 °F 29.84 in Calm     89% 0.00 in 0 W/m2
22:39 46.2 °F 43.2 °F 29.84 in NW 1.3 mph 2 mph 89% 0.00 in 0 W/m2
22:44 46.2 °F 43.4 °F 29.84 in NW 0.2 mph 2 mph 89.8% 0.00 in 0 W/m2
22:49 46.1 °F 43.3 °F 29.84 in Calm     90% 0.00 in 0 W/m2
22:54 46 °F 43.3 °F 29.85 in Calm     90% 0.00 in 0 W/m2
22:59 45.7 °F 43 °F 29.85 in Calm     90% 0.00 in 0 W/m2
23:04 45.3 °F 42.6 °F 29.85 in Calm     90% 0.00 in 0 W/m2
23:09 45.1 °F 42.4 °F 29.85 in Calm     90% 0.00 in 0 W/m2
23:14 45.1 °F 42.4 °F 29.85 in Calm     90% 0.00 in 0 W/m2
23:19 45.1 °F 42.4 °F 29.85 in Calm     90% 0.00 in 0 W/m2
23:24 45.1 °F 42.4 °F 29.85 in Calm     90% 0.00 in 0 W/m2
23:29 45 °F 42.3 °F 29.85 in Calm     90% 0.00 in 0 W/m2
23:34 45 °F 42.3 °F 29.85 in Calm     90% 0.00 in 0 W/m2
23:39 44.9 °F 42.2 °F 29.85 in Calm     90% 0.00 in 0 W/m2
23:44 44.8 °F 42.2 °F 29.85 in Calm     90.4% 0.00 in 0 W/m2
23:49 44.8 °F 42.3 °F 29.85 in NW 0.5 mph 3 mph 91% 0.00 in 0 W/m2
23:54 44.8 °F 42.3 °F 29.85 in NW 0.2 mph 3 mph 91% 0.00 in 0 W/m2
23:59 44.6 °F 42.1 °F 29.85 in Calm     91% 0.00 in 0 W/m2
Bath Spa Weather
Compliments of Weather Underground - 2 mb